createdAt,value
2023-02-04T00:02:04.756Z,2.41
2023-02-04T00:05:22.753Z,2.43
2023-02-04T00:11:54.688Z,2.52
2023-02-04T00:15:12.067Z,2.55
2023-02-04T00:18:28.326Z,2.60
2023-02-04T00:25:00.642Z,2.66
2023-02-04T00:28:16.908Z,2.67
2023-02-04T00:31:33.187Z,2.68
2023-02-04T00:34:50.183Z,2.69
2023-02-04T00:38:06.301Z,2.67
2023-02-04T00:41:22.600Z,2.70
2023-02-04T00:44:41.372Z,2.72
2023-02-04T00:47:57.983Z,2.75
2023-02-04T00:51:14.365Z,2.73
2023-02-04T00:54:30.597Z,2.72
2023-02-04T00:57:47.951Z,2.70
2023-02-04T01:01:04.248Z,2.80
2023-02-04T01:04:20.852Z,2.79
2023-02-04T01:07:37.231Z,2.75
2023-02-04T01:10:53.761Z,2.79
2023-02-04T01:14:10.337Z,2.77
2023-02-04T01:17:27.876Z,2.77
2023-02-04T01:20:44.017Z,2.79
2023-02-04T01:27:16.458Z,2.85
2023-02-04T01:30:32.753Z,2.82
2023-02-04T01:33:49.211Z,2.82
2023-02-04T01:40:23.266Z,2.87
2023-02-04T01:43:40.368Z,2.88
2023-02-04T01:46:56.459Z,2.88
2023-02-04T01:50:15.740Z,2.86
2023-02-04T01:53:34.300Z,2.86
2023-02-04T01:56:56.045Z,2.85
2023-02-04T02:00:17.858Z,2.83
2023-02-04T02:03:35.699Z,2.86
2023-02-04T02:10:07.846Z,2.86
2023-02-04T02:13:27.064Z,2.87
2023-02-04T02:16:43.146Z,2.86
2023-02-04T02:20:00.838Z,2.87
2023-02-04T02:26:33.588Z,2.83
2023-02-04T02:29:51.411Z,2.81
2023-02-04T02:33:08.620Z,2.86
2023-02-04T02:41:32.243Z,2.78
2023-02-04T02:44:48.752Z,2.75
2023-02-04T02:48:08.079Z,2.78
2023-02-04T02:56:16.987Z,2.74
2023-02-04T02:59:34.975Z,2.72
2023-02-04T03:02:54.039Z,2.72
2023-02-04T03:06:14.756Z,2.73
2023-02-04T03:12:48.566Z,2.68
2023-02-04T03:16:06.085Z,2.70
2023-02-04T03:19:22.763Z,2.70
2023-02-04T03:22:39.428Z,2.71
2023-02-04T03:25:56.084Z,2.68
2023-02-04T03:29:14.468Z,2.66
2023-02-04T03:32:31.395Z,2.65
2023-02-04T03:35:47.833Z,2.59
2023-02-04T03:42:19.845Z,2.60
2023-02-04T03:45:44.896Z,2.54
2023-02-04T03:48:54.406Z,2.53
2023-02-04T03:55:27.064Z,2.39
2023-02-04T03:58:43.426Z,2.38
2023-02-04T04:01:59.772Z,2.38
2023-02-04T04:05:17.726Z,2.23
2023-02-04T04:11:50.067Z,2.20
2023-02-04T04:15:06.125Z,2.18
2023-02-04T04:18:22.005Z,2.07
2023-02-04T04:21:38.148Z,2.03
2023-02-04T04:28:10.054Z,1.93
2023-02-04T04:31:26.362Z,1.79
2023-02-04T04:34:42.801Z,1.83
2023-02-04T04:37:59.173Z,1.71
2023-02-04T04:41:15.365Z,1.52
2023-02-04T04:44:42.556Z,1.39
2023-02-04T04:47:58.544Z,1.22
2023-02-04T04:51:15.149Z,1.07
2023-02-04T04:54:31.200Z,0.96
2023-02-04T04:57:47.622Z,0.79
2023-02-04T05:01:03.717Z,0.72
2023-02-04T05:04:20.452Z,0.63
2023-02-04T05:07:37.083Z,0.41
2023-02-04T05:10:53.952Z,0.29
2023-02-04T05:14:10.181Z,0.21
2023-02-04T05:17:28.592Z,0.08
2023-02-04T05:20:44.367Z,0.08
2023-02-04T05:24:00.611Z,0.09
2023-02-04T05:27:16.959Z,0.04
2023-02-04T05:30:33.589Z,-0.03
2023-02-04T05:33:50.073Z,-0.09
2023-02-04T05:37:06.385Z,-0.11
2023-02-04T05:40:23.744Z,-0.14
2023-02-04T05:43:40.560Z,-0.21
2023-02-04T05:46:56.670Z,-0.23
2023-02-04T05:50:15.498Z,-0.31
2023-02-04T05:53:31.792Z,-0.32
2023-02-04T05:56:47.925Z,-0.35
2023-02-04T06:00:04.597Z,-0.37
2023-02-04T06:03:22.624Z,-0.46
2023-02-04T06:06:39.035Z,-0.52
2023-02-04T06:09:55.238Z,-0.51
2023-02-04T06:13:11.402Z,-0.46
2023-02-04T06:16:27.706Z,-0.52
2023-02-04T06:19:43.980Z,-0.52
2023-02-04T06:23:00.501Z,-0.52
2023-02-04T06:26:17.514Z,-0.50
2023-02-04T06:29:33.720Z,-0.47
2023-02-04T06:32:52.617Z,-0.56
2023-02-04T06:36:08.894Z,-0.58
2023-02-04T06:39:25.722Z,-0.56
2023-02-04T06:42:42.098Z,-0.54
2023-02-04T06:45:58.737Z,-0.56
2023-02-04T06:49:15.058Z,-0.56
2023-02-04T06:52:31.208Z,-0.58
2023-02-04T06:55:47.663Z,-0.62
2023-02-04T06:59:03.822Z,-0.58
2023-02-04T07:02:21.353Z,-0.60
2023-02-04T07:05:38.197Z,-0.65
2023-02-04T07:08:54.931Z,-0.61
2023-02-04T07:12:12.954Z,-0.55
2023-02-04T07:15:30.131Z,-0.55
2023-02-04T07:18:46.421Z,-0.58
2023-02-04T07:22:02.570Z,-0.52
2023-02-04T07:25:20.184Z,-0.54
2023-02-04T07:28:37.779Z,-0.53
2023-02-04T07:31:55.282Z,-0.53
2023-02-04T07:35:12.545Z,-0.48
2023-02-04T07:38:28.769Z,-0.46
2023-02-04T07:41:45.432Z,-0.49
2023-02-04T07:45:01.941Z,-0.52
2023-02-04T07:48:18.241Z,-0.51
2023-02-04T07:51:34.543Z,-0.53
2023-02-04T07:54:50.940Z,-0.55
2023-02-04T07:58:07.486Z,-0.52
2023-02-04T08:01:23.709Z,-0.53
2023-02-04T08:04:40.171Z,-0.55
2023-02-04T08:07:56.496Z,-0.50
2023-02-04T08:11:13.011Z,-0.47
2023-02-04T08:14:29.252Z,-0.46
2023-02-04T08:17:45.572Z,-0.36
2023-02-04T08:21:02.508Z,-0.38
2023-02-04T08:24:18.908Z,-0.37
2023-02-04T08:27:35.139Z,-0.38
2023-02-04T08:30:51.406Z,-0.37
2023-02-04T08:34:08.000Z,-0.31
2023-02-04T08:37:24.157Z,-0.29
2023-02-04T08:40:40.573Z,-0.26
2023-02-04T08:43:57.068Z,-0.16
2023-02-04T08:47:13.526Z,-0.19
2023-02-04T08:50:31.810Z,-0.07
2023-02-04T08:53:48.511Z,0.06
2023-02-04T08:57:04.704Z,0.15
2023-02-04T09:00:25.235Z,0.47
2023-02-04T09:03:41.751Z,0.84
2023-02-04T09:06:59.057Z,1.02
2023-02-04T09:10:16.549Z,0.98
2023-02-04T09:13:33.538Z,0.99
2023-02-04T09:16:49.949Z,0.72
2023-02-04T09:20:06.341Z,0.89
2023-02-04T09:23:23.954Z,0.85
2023-02-04T09:26:40.293Z,0.78
2023-02-04T09:29:56.628Z,0.67
2023-02-04T09:33:13.198Z,0.69
2023-02-04T09:36:31.423Z,0.56
2023-02-04T09:39:47.690Z,0.51
2023-02-04T09:43:05.387Z,0.47
2023-02-04T09:46:29.369Z,0.40
2023-02-04T09:49:45.563Z,0.53
2023-02-04T09:53:06.926Z,0.45
2023-02-04T09:56:23.091Z,0.53
2023-02-04T09:59:39.529Z,0.56
2023-02-04T10:02:56.138Z,0.55
2023-02-04T10:06:13.781Z,0.75
2023-02-04T10:09:30.283Z,0.73
2023-02-04T10:12:47.346Z,0.67
2023-02-04T10:16:03.658Z,0.58
2023-02-04T10:19:23.504Z,0.56
2023-02-04T10:22:40.558Z,0.47
2023-02-04T10:25:57.259Z,0.33
2023-02-04T10:29:17.237Z,0.33
2023-02-04T10:32:39.048Z,-0.13
2023-02-04T10:35:58.478Z,-0.01
2023-02-04T10:39:23.361Z,0.06
2023-02-04T10:42:44.338Z,0.18
2023-02-04T10:46:10.084Z,0.34
2023-02-04T10:49:36.160Z,0.28
2023-02-04T10:53:02.479Z,0.46
2023-02-04T10:56:25.794Z,0.79
2023-02-04T10:59:43.006Z,0.90
2023-02-04T11:03:10.984Z,0.84
2023-02-04T11:06:31.126Z,0.91
2023-02-04T11:09:54.754Z,1.06
2023-02-04T11:13:25.816Z,1.20
2023-02-04T11:16:46.113Z,1.09
2023-02-04T11:20:02.423Z,1.05
2023-02-04T11:23:43.397Z,1.18
2023-02-04T11:27:05.757Z,1.00
2023-02-04T11:30:38.547Z,0.91
2023-02-04T11:34:12.999Z,0.69
2023-02-04T11:37:47.281Z,0.79
2023-02-04T11:41:08.254Z,0.61
2023-02-04T11:44:27.562Z,0.65
2023-02-04T11:47:48.931Z,0.73
2023-02-04T11:51:17.868Z,0.62
2023-02-04T11:54:41.410Z,0.47
2023-02-04T11:58:02.978Z,0.22
2023-02-04T12:01:32.447Z,0.34
2023-02-04T12:05:05.490Z,0.45
2023-02-04T12:08:39.516Z,0.42
2023-02-04T12:12:05.491Z,0.44
2023-02-04T12:15:29.438Z,0.27
2023-02-04T12:18:46.787Z,0.25
2023-02-04T12:22:08.794Z,0.39
2023-02-04T12:25:25.733Z,0.26
2023-02-04T12:28:52.051Z,0.23
2023-02-04T12:35:56.732Z,0.30
2023-02-04T12:39:36.549Z,0.30
2023-02-04T12:43:28.504Z,0.31
2023-02-04T12:46:55.096Z,0.25
2023-02-04T12:50:21.942Z,0.15
2023-02-04T12:53:59.687Z,0.11
2023-02-04T12:57:43.360Z,-0.05
2023-02-04T13:01:12.400Z,-0.24
2023-02-04T13:04:43.919Z,-0.15
2023-02-04T13:08:05.151Z,-0.14
2023-02-04T13:11:21.571Z,-0.19
2023-02-04T13:14:40.829Z,-0.28
2023-02-04T13:17:57.692Z,-0.32
2023-02-04T13:21:14.595Z,-0.35
2023-02-04T13:24:31.238Z,-0.40
2023-02-04T13:27:50.848Z,-0.44
2023-02-04T13:31:07.889Z,-0.43
2023-02-04T13:34:24.606Z,-0.39
2023-02-04T13:37:41.232Z,-0.38
2023-02-04T13:40:57.687Z,-0.40
2023-02-04T13:44:20.329Z,-0.30
2023-02-04T13:47:48.245Z,-0.35
2023-02-04T13:51:09.640Z,-0.40
2023-02-04T13:54:28.588Z,-0.48
2023-02-04T13:57:45.051Z,-0.49
2023-02-04T14:01:02.743Z,-0.59
2023-02-04T14:04:19.480Z,-0.55
2023-02-04T14:07:37.389Z,-0.56
2023-02-04T14:10:59.392Z,-0.53
2023-02-04T14:14:15.894Z,-0.55
2023-02-04T14:17:32.577Z,-0.54
2023-02-04T14:20:50.728Z,-0.44
2023-02-04T14:24:10.051Z,-0.72
2023-02-04T14:27:28.149Z,-0.60
2023-02-04T14:30:44.616Z,-0.52
2023-02-04T14:34:01.110Z,-0.62
2023-02-04T14:37:17.839Z,-0.51
2023-02-04T14:40:42.343Z,-0.44
2023-02-04T14:44:21.540Z,-0.48
2023-02-04T14:47:45.973Z,-0.56
2023-02-04T14:51:05.821Z,-0.67
2023-02-04T14:54:24.225Z,-0.56
2023-02-04T14:57:44.316Z,-0.53
2023-02-04T15:01:06.362Z,-0.64
2023-02-04T15:04:34.697Z,-0.66
2023-02-04T15:07:57.051Z,-0.77
2023-02-04T15:11:17.521Z,-0.71
2023-02-04T15:14:37.478Z,-0.72
2023-02-04T15:18:00.445Z,-0.87
2023-02-04T15:21:18.282Z,-0.78
2023-02-04T15:24:34.725Z,-0.78
2023-02-04T15:27:51.251Z,-0.79
2023-02-04T15:31:10.639Z,-0.79
2023-02-04T15:34:31.878Z,-0.82
2023-02-04T15:37:51.051Z,-0.84
2023-02-04T15:41:09.153Z,-0.84
2023-02-04T15:44:28.620Z,-1.06
2023-02-04T15:47:48.162Z,-0.98
2023-02-04T15:51:05.691Z,-0.93
2023-02-04T15:54:21.972Z,-0.92
2023-02-04T15:57:39.245Z,-0.96
2023-02-04T16:01:09.646Z,-1.06
2023-02-04T16:04:30.446Z,-0.92
2023-02-04T16:07:46.895Z,-0.94
2023-02-04T16:11:10.843Z,-1.03
2023-02-04T16:14:27.543Z,-0.96
2023-02-04T16:17:44.205Z,-1.02
2023-02-04T16:21:01.634Z,-0.98
2023-02-04T16:24:19.360Z,-1.03
2023-02-04T16:27:36.868Z,-1.04
2023-02-04T16:30:53.379Z,-1.00
2023-02-04T16:34:11.619Z,-0.96
2023-02-04T16:37:28.122Z,-1.04
2023-02-04T16:40:44.694Z,-0.94
2023-02-04T16:44:03.092Z,-0.95
2023-02-04T16:47:19.793Z,-0.98
2023-02-04T16:50:36.246Z,-1.00
2023-02-04T16:53:52.647Z,-1.10
2023-02-04T16:57:09.646Z,-1.11
2023-02-04T17:00:27.548Z,-1.15
2023-02-04T17:03:44.910Z,-1.11
2023-02-04T17:07:01.953Z,-1.11
2023-02-04T17:10:21.218Z,-1.19
2023-02-04T17:13:38.370Z,-1.10
2023-02-04T17:16:56.922Z,-1.06
2023-02-04T17:20:14.229Z,-1.12
2023-02-04T17:23:30.926Z,-1.08
2023-02-04T17:26:48.531Z,-1.00
2023-02-04T17:30:05.001Z,-1.06
2023-02-04T17:33:21.666Z,-1.00
2023-02-04T17:36:39.421Z,-1.02
2023-02-04T17:39:55.847Z,-0.95
2023-02-04T17:43:12.854Z,-0.95
2023-02-04T17:46:29.492Z,-0.89
2023-02-04T17:49:47.927Z,-0.94
2023-02-04T17:53:05.807Z,-1.06
2023-02-04T17:56:23.344Z,-1.02
2023-02-04T17:59:42.121Z,-1.06
2023-02-04T18:03:01.048Z,-1.03
2023-02-04T18:06:29.815Z,-1.09
2023-02-04T18:09:50.540Z,-1.14
2023-02-04T18:13:09.809Z,-1.17
2023-02-04T18:16:43.863Z,-1.22
2023-02-04T18:20:00.716Z,-1.31
2023-02-04T18:23:23.239Z,-1.36
2023-02-04T18:26:45.176Z,-1.46
2023-02-04T18:30:07.299Z,-1.52
2023-02-04T18:33:29.659Z,-1.60
2023-02-04T18:36:46.597Z,-1.52
2023-02-04T18:40:06.318Z,-1.53
2023-02-04T18:43:33.177Z,-1.50
2023-02-04T18:46:53.433Z,-1.65
2023-02-04T18:50:21.884Z,-1.57
2023-02-04T18:53:40.522Z,-1.58
2023-02-04T18:56:58.867Z,-1.64
2023-02-04T19:00:45.661Z,-1.68
2023-02-04T19:04:05.213Z,-1.54
2023-02-04T19:07:23.374Z,-1.56
2023-02-04T19:10:44.120Z,-1.66
2023-02-04T19:14:06.048Z,-1.75
2023-02-04T19:17:31.927Z,-1.80
2023-02-04T19:20:49.117Z,-1.83
2023-02-04T19:24:16.538Z,-1.81
2023-02-04T19:27:41.816Z,-1.86
2023-02-04T19:31:07.605Z,-1.94
2023-02-04T19:34:33.031Z,-2.04
2023-02-04T19:37:55.286Z,-2.17
2023-02-04T19:41:35.473Z,-2.26
2023-02-04T19:44:55.574Z,-2.35
2023-02-04T19:48:24.507Z,-2.30
2023-02-04T19:51:44.374Z,-2.30
2023-02-04T19:55:02.128Z,-2.31
2023-02-04T19:58:27.068Z,-2.33
2023-02-04T20:01:46.461Z,-2.18
2023-02-04T20:05:01.569Z,-2.08
2023-02-04T20:08:49.817Z,-2.04
2023-02-04T20:12:13.189Z,-1.95
2023-02-04T20:15:30.787Z,-1.87
2023-02-04T20:18:49.476Z,-1.85
2023-02-04T20:22:40.733Z,-1.86
2023-02-04T20:25:58.183Z,-1.76
2023-02-04T20:29:27.160Z,-1.81
2023-02-04T20:32:48.400Z,-1.84
2023-02-04T20:36:52.960Z,-1.89
2023-02-04T20:40:14.396Z,-1.78
2023-02-04T20:43:31.317Z,-1.72
2023-02-04T20:46:48.160Z,-1.77
2023-02-04T20:50:06.586Z,-1.81
2023-02-04T20:53:46.553Z,-1.82
2023-02-04T20:57:05.611Z,-1.76
2023-02-04T21:00:35.477Z,-1.87
2023-02-04T21:03:52.063Z,-1.79
2023-02-04T21:07:15.300Z,-1.82
2023-02-04T21:10:33.250Z,-1.90
2023-02-04T21:13:57.940Z,-1.91
2023-02-04T21:17:15.158Z,-1.94
2023-02-04T21:20:35.430Z,-2.03
2023-02-04T21:23:54.267Z,-2.05
2023-02-04T21:27:22.177Z,-2.04
2023-02-04T21:30:50.567Z,-2.13
2023-02-04T21:34:20.429Z,-2.12
2023-02-04T21:37:46.817Z,-2.20
2023-02-04T21:41:03.317Z,-2.12
2023-02-04T21:44:19.764Z,-2.09
2023-02-04T21:47:40.549Z,-2.06
2023-02-04T21:51:04.586Z,-2.05
2023-02-04T21:54:21.410Z,-2.05
2023-02-04T21:57:39.765Z,-2.06
2023-02-04T22:00:57.805Z,-2.10
2023-02-04T22:04:33.566Z,-2.27
2023-02-04T22:08:01.810Z,-2.17
2023-02-04T22:11:21.577Z,-2.13
2023-02-04T22:14:38.939Z,-2.14
2023-02-04T22:18:05.729Z,-2.18
2023-02-04T22:21:45.535Z,-2.17
2023-02-04T22:32:33.796Z,-2.08
2023-02-04T22:36:32.298Z,-2.19
2023-02-04T22:40:31.885Z,-2.28
2023-02-04T22:44:11.934Z,-2.66
2023-02-04T22:48:29.803Z,-2.67
2023-02-04T22:56:31.411Z,-3.02
2023-02-04T23:00:02.748Z,-3.04
2023-02-04T23:03:32.633Z,-2.95
2023-02-04T23:07:20.914Z,-2.85
2023-02-04T23:11:09.971Z,-2.90
2023-02-04T23:14:49.950Z,-2.85
2023-02-04T23:18:35.530Z,-2.83
2023-02-04T23:22:12.232Z,-2.75
2023-02-04T23:25:48.148Z,-2.77
2023-02-04T23:29:27.417Z,-2.83
2023-02-04T23:37:03.936Z,-2.87
2023-02-04T23:40:44.392Z,-2.95
2023-02-04T23:44:17.541Z,-2.93
2023-02-04T23:48:30.082Z,-3.08
2023-02-04T23:52:23.673Z,-3.11
2023-02-04T23:56:02.202Z,-3.17
2023-02-04T23:59:28.012Z,-3.18
